createdAt,value
2018-11-12T00:01:06.862Z,0.60
2018-11-12T00:03:35.305Z,1.00
2018-11-12T00:06:03.720Z,0.97
2018-11-12T00:08:32.098Z,0.80
2018-11-12T00:11:00.457Z,0.90
2018-11-12T00:13:28.865Z,0.50
2018-11-12T00:15:57.289Z,0.63
2018-11-12T00:18:25.672Z,1.03
2018-11-12T00:20:54.033Z,1.30
2018-11-12T00:23:22.461Z,0.70
2018-11-12T00:25:50.799Z,0.80
2018-11-12T00:28:19.251Z,0.90
2018-11-12T00:30:47.665Z,0.90
2018-11-12T00:33:16.055Z,0.70
2018-11-12T00:35:44.462Z,0.60
2018-11-12T00:38:12.858Z,0.50
2018-11-12T00:40:41.264Z,0.90
2018-11-12T00:43:09.665Z,0.93
2018-11-12T00:45:38.057Z,0.80
2018-11-12T00:48:06.478Z,0.77
2018-11-12T00:50:34.852Z,0.70
2018-11-12T00:53:03.233Z,0.90
2018-11-12T00:55:31.646Z,0.80
2018-11-12T00:58:00.041Z,0.97
2018-11-12T01:00:28.403Z,0.80
2018-11-12T01:02:56.849Z,0.80
2018-11-12T01:05:25.253Z,1.03
2018-11-12T01:07:53.664Z,0.90
2018-11-12T01:10:22.033Z,0.50
2018-11-12T01:12:50.425Z,0.70
2018-11-12T01:15:19.889Z,0.70
2018-11-12T01:17:48.399Z,0.70
2018-11-12T01:20:17.490Z,0.70
2018-11-12T01:22:46.051Z,1.13
2018-11-12T01:25:14.921Z,0.77
2018-11-12T01:27:43.838Z,1.20
2018-11-12T01:30:13.880Z,0.90
2018-11-12T01:32:42.674Z,0.97
2018-11-12T01:35:12.174Z,1.20
2018-11-12T01:37:40.556Z,0.93
2018-11-12T01:40:10.353Z,1.00
2018-11-12T01:42:38.717Z,1.00
2018-11-12T01:45:09.681Z,0.70
2018-11-12T01:47:38.107Z,0.97
2018-11-12T01:50:08.313Z,0.90
2018-11-12T01:52:36.689Z,0.67
2018-11-12T01:55:05.762Z,0.80
2018-11-12T01:57:34.128Z,0.63
2018-11-12T02:00:02.547Z,0.87
2018-11-12T02:02:31.118Z,0.90
2018-11-12T02:04:59.651Z,0.90
2018-11-12T02:07:27.945Z,0.70
2018-11-12T02:09:56.354Z,0.87
2018-11-12T02:12:24.745Z,0.90
2018-11-12T02:14:53.126Z,0.83
2018-11-12T02:17:21.557Z,0.87
2018-11-12T02:19:49.965Z,0.83
2018-11-12T02:22:18.343Z,1.00
2018-11-12T02:24:46.781Z,0.83
2018-11-12T02:27:15.153Z,1.10
2018-11-12T02:29:43.578Z,1.03
2018-11-12T02:32:11.994Z,0.77
2018-11-12T02:34:40.394Z,1.10
2018-11-12T02:37:08.789Z,0.80
2018-11-12T02:39:37.240Z,1.07
2018-11-12T02:42:05.937Z,1.03
2018-11-12T02:44:34.357Z,1.20
2018-11-12T02:47:02.743Z,0.97
2018-11-12T02:49:31.139Z,1.20
2018-11-12T02:51:59.533Z,1.33
2018-11-12T02:54:27.942Z,1.07
2018-11-12T02:56:56.293Z,1.10
2018-11-12T02:59:24.694Z,0.93
2018-11-12T03:01:53.069Z,1.07
2018-11-12T03:04:21.498Z,1.20
2018-11-12T03:06:49.861Z,1.10
2018-11-12T03:09:18.249Z,1.03
2018-11-12T03:11:46.622Z,1.43
2018-11-12T03:14:15.027Z,1.37
2018-11-12T03:16:43.391Z,1.30
2018-11-12T03:19:11.824Z,1.07
2018-11-12T03:21:40.213Z,1.20
2018-11-12T03:24:08.653Z,1.13
2018-11-12T03:26:37.043Z,1.10
2018-11-12T03:29:05.838Z,1.37
2018-11-12T03:31:34.210Z,1.40
2018-11-12T03:34:02.658Z,1.20
2018-11-12T03:36:31.036Z,1.27
2018-11-12T03:38:59.449Z,1.30
2018-11-12T03:41:27.909Z,1.47
2018-11-12T03:43:56.314Z,1.20
2018-11-12T03:46:24.809Z,1.60
2018-11-12T03:48:53.222Z,1.23
2018-11-12T03:51:21.605Z,1.40
2018-11-12T03:53:50.007Z,1.47
2018-11-12T03:56:18.408Z,1.43
2018-11-12T03:58:46.837Z,1.20
2018-11-12T04:01:15.289Z,1.57
2018-11-12T04:03:43.717Z,1.47
2018-11-12T04:06:12.169Z,1.33
2018-11-12T04:08:40.551Z,1.60
2018-11-12T04:11:08.969Z,1.50
2018-11-12T04:13:37.345Z,1.77
2018-11-12T04:16:05.794Z,1.87
2018-11-12T04:18:34.331Z,1.60
2018-11-12T04:21:02.796Z,1.90
2018-11-12T04:23:31.187Z,1.93
2018-11-12T04:25:59.590Z,1.97
2018-11-12T04:28:27.970Z,1.73
2018-11-12T04:30:56.387Z,1.80
2018-11-12T04:33:24.770Z,1.67
2018-11-12T04:35:53.153Z,1.33
2018-11-12T04:38:21.516Z,1.43
2018-11-12T04:40:49.921Z,1.60
2018-11-12T04:43:18.299Z,1.50
2018-11-12T04:45:46.766Z,1.77
2018-11-12T04:48:15.102Z,1.70
2018-11-12T04:50:43.545Z,1.60
2018-11-12T04:53:11.942Z,1.90
2018-11-12T04:55:40.356Z,1.70
2018-11-12T04:58:08.753Z,1.50
2018-11-12T05:00:37.166Z,1.60
2018-11-12T05:03:05.689Z,2.00
2018-11-12T05:05:34.144Z,2.00
2018-11-12T05:08:02.505Z,1.90
2018-11-12T05:10:30.981Z,2.20
2018-11-12T05:12:59.394Z,2.20
2018-11-12T05:15:27.822Z,2.17
2018-11-12T05:17:56.202Z,2.40
2018-11-12T05:20:27.993Z,2.30
2018-11-12T05:22:56.391Z,2.37
2018-11-12T05:25:24.870Z,2.23
2018-11-12T05:27:53.241Z,2.50
2018-11-12T05:30:23.943Z,2.00
2018-11-12T05:32:52.385Z,2.40
2018-11-12T05:35:21.960Z,2.20
2018-11-12T05:37:50.466Z,2.60
2018-11-12T05:40:20.182Z,2.43
2018-11-12T05:42:48.602Z,2.47
2018-11-12T05:45:18.193Z,2.80
2018-11-12T05:47:46.614Z,2.77
2018-11-12T05:50:16.801Z,2.87
2018-11-12T05:52:46.337Z,2.60
2018-11-12T05:55:17.037Z,2.80
2018-11-12T05:57:46.006Z,2.47
2018-11-12T06:00:16.198Z,3.30
2018-11-12T06:02:44.601Z,3.23
2018-11-12T06:05:14.164Z,3.10
2018-11-12T06:07:42.846Z,2.47
2018-11-12T06:10:14.145Z,2.87
2018-11-12T06:12:42.921Z,2.80
2018-11-12T06:15:12.055Z,2.43
2018-11-12T06:17:41.053Z,2.53
2018-11-12T06:20:15.698Z,2.80
2018-11-12T06:22:44.234Z,3.30
2018-11-12T06:25:13.849Z,2.70
2018-11-12T06:27:42.298Z,3.03
2018-11-12T06:30:14.701Z,2.80
2018-11-12T06:32:43.253Z,2.50
2018-11-12T06:35:12.440Z,2.93
2018-11-12T06:37:41.197Z,2.60
2018-11-12T06:40:12.823Z,2.43
2018-11-12T06:42:41.299Z,2.50
2018-11-12T06:45:15.118Z,2.07
2018-11-12T06:47:44.308Z,2.37
2018-11-12T06:50:14.050Z,2.20
2018-11-12T06:52:42.435Z,2.63
2018-11-12T06:55:12.069Z,3.20
2018-11-12T06:57:41.098Z,3.07
2018-11-12T07:00:27.301Z,4.00
2018-11-12T07:02:55.774Z,3.47
2018-11-12T07:05:24.453Z,4.10
2018-11-12T07:07:52.991Z,4.30
2018-11-12T07:10:22.999Z,4.70
2018-11-12T07:12:52.336Z,5.40
2018-11-12T07:15:21.878Z,4.87
2018-11-12T07:17:50.293Z,5.07
2018-11-12T07:20:20.234Z,5.57
2018-11-12T07:22:50.554Z,5.53
2018-11-12T07:25:20.451Z,6.00
2018-11-12T07:27:48.821Z,6.33
2018-11-12T07:30:20.518Z,6.00
2018-11-12T07:32:49.760Z,5.70
2018-11-12T07:35:18.721Z,6.50
2018-11-12T07:37:48.470Z,5.97
2018-11-12T07:40:17.463Z,6.80
2018-11-12T07:42:45.933Z,6.40
2018-11-12T07:45:15.670Z,6.23
2018-11-12T07:47:45.026Z,6.73
2018-11-12T07:50:14.641Z,6.13
2018-11-12T07:52:43.131Z,6.90
2018-11-12T07:55:14.167Z,6.60
2018-11-12T07:57:43.010Z,5.77
2018-11-12T08:00:15.666Z,5.93
2018-11-12T08:02:45.121Z,5.80
2018-11-12T08:05:14.106Z,6.03
2018-11-12T08:07:43.270Z,5.70
2018-11-12T08:10:14.101Z,5.20
2018-11-12T08:12:43.417Z,5.53
2018-11-12T08:15:13.130Z,4.87
2018-11-12T08:17:41.753Z,4.87
2018-11-12T08:20:12.489Z,4.67
2018-11-12T08:22:40.998Z,4.97
2018-11-12T08:25:10.514Z,4.80
2018-11-12T08:27:39.213Z,4.60
2018-11-12T08:30:09.808Z,5.07
2018-11-12T08:32:38.210Z,4.90
2018-11-12T08:35:06.635Z,5.30
2018-11-12T08:37:35.053Z,4.77
2018-11-12T08:40:03.667Z,4.70
2018-11-12T08:42:33.040Z,4.47
2018-11-12T08:45:01.789Z,4.23
2018-11-12T08:47:30.254Z,4.40
2018-11-12T08:49:58.826Z,4.57
2018-11-12T08:52:27.236Z,4.30
2018-11-12T08:54:55.668Z,4.40
2018-11-12T08:57:24.090Z,3.90
2018-11-12T08:59:52.481Z,3.67
2018-11-12T09:02:20.882Z,3.20
2018-11-12T09:04:49.326Z,2.97
2018-11-12T09:07:18.186Z,2.83
2018-11-12T09:09:46.158Z,2.33
2018-11-12T09:12:14.597Z,2.63
2018-11-12T09:14:42.997Z,2.50
2018-11-12T09:17:11.485Z,2.33
2018-11-12T09:19:39.913Z,2.13
2018-11-12T09:22:08.314Z,2.17
2018-11-12T09:24:36.713Z,2.23
2018-11-12T09:27:05.779Z,2.00
2018-11-12T09:29:34.248Z,2.10
2018-11-12T09:32:02.671Z,2.53
2018-11-12T09:34:31.054Z,2.23
2018-11-12T09:36:59.603Z,2.03
2018-11-12T09:39:28.169Z,1.70
2018-11-12T09:41:56.545Z,1.73
2018-11-12T09:44:24.995Z,1.50
2018-11-12T09:46:53.386Z,2.03
2018-11-12T09:49:29.030Z,1.70
2018-11-12T09:51:57.573Z,1.30
2018-11-12T09:54:26.178Z,1.53
2018-11-12T09:56:54.397Z,2.07
2018-11-12T09:59:22.837Z,1.57
2018-11-12T10:01:51.946Z,1.63
2018-11-12T10:04:20.963Z,2.00
2018-11-12T10:06:49.944Z,2.50
2018-11-12T10:09:18.444Z,1.77
2018-11-12T10:11:47.156Z,2.07
2018-11-12T10:14:15.072Z,1.47
2018-11-12T10:16:43.888Z,1.67
2018-11-12T10:19:10.371Z,1.63
2018-11-12T10:21:38.999Z,1.70
2018-11-12T10:24:07.657Z,1.50
2018-11-12T10:26:36.090Z,1.80
2018-11-12T10:29:04.518Z,1.80
2018-11-12T10:31:33.501Z,1.40
2018-11-12T10:34:02.496Z,1.43
2018-11-12T10:36:30.997Z,1.83
2018-11-12T10:39:00.638Z,1.70
2018-11-12T10:41:29.147Z,1.63
2018-11-12T10:43:57.745Z,1.53
2018-11-12T10:46:26.237Z,1.67
2018-11-12T10:48:54.846Z,1.43
2018-11-12T10:51:23.333Z,1.43
2018-11-12T10:53:51.841Z,1.33
2018-11-12T10:56:20.754Z,1.17
2018-11-12T10:58:49.149Z,1.27
2018-11-12T11:01:20.503Z,1.30
2018-11-12T11:03:58.187Z,1.30
2018-11-12T11:06:26.951Z,1.33
2018-11-12T11:08:55.430Z,1.17
2018-11-12T11:11:23.897Z,1.50
2018-11-12T11:13:52.312Z,1.30
2018-11-12T11:16:32.326Z,1.27
2018-11-12T11:19:01.181Z,1.37
2018-11-12T11:21:29.856Z,0.77
2018-11-12T11:23:58.459Z,1.50
2018-11-12T11:26:26.867Z,1.20
2018-11-12T11:28:55.595Z,1.03
2018-11-12T11:31:24.121Z,1.00
2018-11-12T11:33:52.701Z,1.40
2018-11-12T11:36:21.333Z,1.10
2018-11-12T11:38:49.799Z,1.30
2018-11-12T11:41:18.248Z,1.23
2018-11-12T11:43:47.010Z,1.83
2018-11-12T11:46:15.510Z,1.40
2018-11-12T11:48:44.003Z,1.07
2018-11-12T11:51:12.565Z,1.60
2018-11-12T11:53:41.242Z,1.60
2018-11-12T11:56:09.673Z,1.27
2018-11-12T11:58:38.080Z,1.37
2018-11-12T12:01:06.485Z,1.37
2018-11-12T12:03:34.905Z,1.00
2018-11-12T12:06:03.389Z,1.40
2018-11-12T12:08:31.973Z,1.20
2018-11-12T12:11:00.374Z,1.23
2018-11-12T12:13:28.906Z,1.53
2018-11-12T12:15:57.283Z,0.97
2018-11-12T12:18:25.678Z,1.60
2018-11-12T12:20:54.079Z,1.10
2018-11-12T12:23:22.466Z,1.73
2018-11-12T12:25:50.955Z,1.07
2018-11-12T12:28:19.572Z,1.17
2018-11-12T12:30:47.998Z,1.50
2018-11-12T12:33:16.370Z,1.10
2018-11-12T12:35:44.788Z,1.73
2018-11-12T12:38:13.120Z,1.10
2018-11-12T12:40:41.546Z,1.10
2018-11-12T12:43:09.941Z,1.17
2018-11-12T12:45:38.493Z,1.47
2018-11-12T12:48:06.775Z,0.93
2018-11-12T12:50:35.205Z,1.27
2018-11-12T12:53:03.630Z,1.47
2018-11-12T12:55:32.099Z,1.17
2018-11-12T12:58:00.439Z,0.83
2018-11-12T13:00:28.898Z,0.90
2018-11-12T13:02:57.482Z,1.20
2018-11-12T13:05:25.905Z,1.37
2018-11-12T13:07:54.329Z,0.83
2018-11-12T13:10:23.666Z,1.43
2018-11-12T13:12:52.056Z,1.63
2018-11-12T13:15:21.064Z,1.20
2018-11-12T13:17:50.072Z,1.27
2018-11-12T13:20:19.774Z,1.23
2018-11-12T13:22:48.682Z,1.40
2018-11-12T13:25:17.100Z,1.30
2018-11-12T13:27:46.177Z,1.50
2018-11-12T13:30:19.725Z,1.50
2018-11-12T13:32:48.369Z,4.03
2018-11-12T13:35:18.357Z,5.77
2018-11-12T13:37:46.761Z,6.87
2018-11-12T13:40:17.842Z,7.80
2018-11-12T13:42:47.493Z,8.97
2018-11-12T13:45:15.910Z,10.43
2018-11-12T13:47:44.462Z,12.23
2018-11-12T13:50:17.252Z,11.70
2018-11-12T13:52:45.969Z,12.03
2018-11-12T13:55:15.434Z,12.20
2018-11-12T13:57:43.818Z,14.43
2018-11-12T14:00:14.483Z,13.67
2018-11-12T14:02:43.695Z,13.53
2018-11-12T14:05:14.889Z,14.70
2018-11-12T14:07:43.855Z,13.63
2018-11-12T14:10:14.450Z,14.40
2018-11-12T14:12:43.394Z,15.23
2018-11-12T14:15:13.751Z,15.13
2018-11-12T14:17:42.538Z,14.53
2018-11-12T14:20:11.010Z,15.67
2018-11-12T14:22:39.736Z,16.90
2018-11-12T14:25:09.529Z,17.57
2018-11-12T14:27:37.963Z,16.80
2018-11-12T14:30:07.593Z,16.40
2018-11-12T14:32:35.971Z,17.27
2018-11-12T14:35:05.005Z,17.67
2018-11-12T14:37:33.397Z,18.33
2018-11-12T14:40:01.801Z,17.70
2018-11-12T14:42:30.205Z,18.97
2018-11-12T14:44:58.608Z,17.70
2018-11-12T14:47:26.989Z,17.40
2018-11-12T14:49:55.381Z,17.83
2018-11-12T14:52:23.774Z,18.30
2018-11-12T14:54:52.207Z,17.67
2018-11-12T14:57:20.569Z,16.73
2018-11-12T14:59:48.950Z,17.00
2018-11-12T15:02:18.217Z,14.87
2018-11-12T15:04:46.633Z,13.27
2018-11-12T15:07:15.037Z,14.63
2018-11-12T15:09:43.434Z,14.50
2018-11-12T15:12:11.842Z,15.00
2018-11-12T15:14:40.312Z,13.87
2018-11-12T15:17:08.673Z,13.93
2018-11-12T15:19:37.087Z,14.30
2018-11-12T15:22:05.534Z,13.70
2018-11-12T15:24:34.447Z,14.07
2018-11-12T15:27:03.273Z,12.47
2018-11-12T15:29:31.704Z,13.37
2018-11-12T15:32:00.090Z,13.53
2018-11-12T15:34:28.510Z,13.47
2018-11-12T15:36:57.043Z,13.53
2018-11-12T15:39:25.406Z,13.27
2018-11-12T15:41:53.825Z,13.20
2018-11-12T15:44:22.243Z,12.30
2018-11-12T15:46:50.656Z,13.33
2018-11-12T15:49:19.049Z,12.33
2018-11-12T15:51:47.443Z,13.10
2018-11-12T15:54:16.149Z,12.77
2018-11-12T15:56:44.582Z,13.27
2018-11-12T15:59:13.001Z,13.07
2018-11-12T16:01:41.416Z,13.33
2018-11-12T16:04:09.876Z,14.03
2018-11-12T16:06:38.457Z,13.23
2018-11-12T16:09:10.637Z,13.07
2018-11-12T16:11:39.107Z,13.90
2018-11-12T16:14:07.909Z,13.90
2018-11-12T16:16:36.370Z,13.87
2018-11-12T16:19:04.912Z,13.57
2018-11-12T16:21:33.349Z,14.10
2018-11-12T16:24:01.784Z,14.03
2018-11-12T16:26:30.184Z,12.97
2018-11-12T16:28:58.553Z,14.47
2018-11-12T16:31:26.989Z,14.23
2018-11-12T16:33:55.392Z,15.40
2018-11-12T16:36:23.775Z,14.27
2018-11-12T16:38:52.333Z,14.33
2018-11-12T16:41:20.757Z,13.70
2018-11-12T16:43:49.131Z,13.87
2018-11-12T16:46:17.546Z,13.93
2018-11-12T16:48:45.914Z,14.33
2018-11-12T16:51:14.377Z,14.23
2018-11-12T16:53:42.738Z,12.93
2018-11-12T16:56:11.145Z,12.43
2018-11-12T16:58:39.634Z,12.87
2018-11-12T17:01:08.113Z,13.70
2018-11-12T17:03:36.454Z,11.63
2018-11-12T17:06:04.909Z,11.47
2018-11-12T17:08:33.314Z,12.23
2018-11-12T17:11:01.672Z,12.23
2018-11-12T17:13:30.093Z,11.80
2018-11-12T17:15:58.455Z,12.17
2018-11-12T17:18:26.869Z,11.80
2018-11-12T17:20:55.251Z,12.50
2018-11-12T17:23:23.654Z,12.43
2018-11-12T17:25:52.033Z,11.47
2018-11-12T17:28:20.409Z,11.67
2018-11-12T17:30:48.914Z,10.90
2018-11-12T17:33:17.291Z,10.77
2018-11-12T17:35:46.162Z,11.57
2018-11-12T17:38:14.538Z,9.90
2018-11-12T17:40:42.893Z,10.40
2018-11-12T17:43:11.376Z,10.60
2018-11-12T17:45:39.759Z,10.47
2018-11-12T17:48:08.567Z,9.97
2018-11-12T17:50:36.996Z,10.37
2018-11-12T17:53:05.645Z,10.70
2018-11-12T17:55:34.030Z,11.80
2018-11-12T17:58:02.453Z,10.97
2018-11-12T18:00:33.649Z,10.70
2018-11-12T18:03:02.094Z,10.77
2018-11-12T18:05:30.557Z,10.80
2018-11-12T18:07:59.097Z,11.97
2018-11-12T18:10:27.454Z,10.80
2018-11-12T18:12:55.873Z,10.80
2018-11-12T18:15:24.928Z,10.40
2018-11-12T18:17:53.422Z,10.83
2018-11-12T18:20:23.973Z,10.70
2018-11-12T18:22:53.316Z,11.47
2018-11-12T18:25:21.732Z,10.70
2018-11-12T18:27:50.169Z,11.33
2018-11-12T18:30:22.436Z,12.20
2018-11-12T18:32:51.805Z,13.10
2018-11-12T18:35:20.197Z,12.43
2018-11-12T18:37:48.654Z,13.07
2018-11-12T18:40:19.114Z,14.03
2018-11-12T18:42:47.840Z,13.80
2018-11-12T18:45:20.637Z,13.70
2018-11-12T18:47:49.119Z,13.37
2018-11-12T18:50:19.826Z,14.27
2018-11-12T18:52:48.336Z,15.03
2018-11-12T18:55:16.672Z,14.77
2018-11-12T18:57:45.896Z,16.10
2018-11-12T19:00:15.897Z,15.43
2018-11-12T19:02:44.330Z,15.17
2018-11-12T19:05:18.896Z,15.00
2018-11-12T19:07:48.321Z,16.40
2018-11-12T19:10:18.124Z,16.13
2018-11-12T19:12:47.017Z,16.20
2018-11-12T19:15:16.725Z,17.13
2018-11-12T19:17:46.193Z,16.57
2018-11-12T19:20:15.570Z,17.20
2018-11-12T19:22:43.982Z,16.73
2018-11-12T19:25:13.170Z,16.67
2018-11-12T19:27:42.057Z,16.03
2018-11-12T19:30:17.551Z,15.83
2018-11-12T19:32:46.014Z,16.43
2018-11-12T19:35:15.658Z,17.10
2018-11-12T19:37:44.073Z,17.03
2018-11-12T19:40:14.889Z,17.07
2018-11-12T19:42:43.933Z,16.10
2018-11-12T19:45:12.926Z,17.40
2018-11-12T19:47:41.421Z,17.93
2018-11-12T19:50:12.444Z,16.73
2018-11-12T19:52:41.715Z,17.03
2018-11-12T19:55:10.149Z,17.60
2018-11-12T19:57:38.613Z,17.50
2018-11-12T20:00:15.756Z,18.67
2018-11-12T20:02:45.157Z,20.00
2018-11-12T20:05:13.614Z,19.40
2018-11-12T20:07:42.465Z,17.83
2018-11-12T20:10:12.642Z,17.93
2018-11-12T20:12:41.248Z,17.20
2018-11-12T20:15:10.566Z,18.33
2018-11-12T20:17:39.310Z,18.60
2018-11-12T20:20:10.217Z,19.20
2018-11-12T20:22:38.745Z,19.13
2018-11-12T20:25:07.970Z,17.83
2018-11-12T20:27:36.245Z,18.77
2018-11-12T20:30:04.998Z,18.67
2018-11-12T20:32:33.424Z,18.90
2018-11-12T20:35:01.815Z,19.20
2018-11-12T20:37:30.229Z,21.07
2018-11-12T20:39:58.738Z,20.17
2018-11-12T20:42:27.137Z,20.47
2018-11-12T20:44:55.608Z,21.07
2018-11-12T20:47:24.001Z,21.77
2018-11-12T20:49:52.445Z,20.70
2018-11-12T20:52:20.838Z,20.93
2018-11-12T20:54:49.265Z,21.27
2018-11-12T20:57:17.653Z,21.17
2018-11-12T20:59:46.094Z,20.47
2018-11-12T21:02:14.481Z,21.33
2018-11-12T21:04:42.906Z,20.07
2018-11-12T21:07:11.309Z,20.53
2018-11-12T21:09:39.866Z,19.97
2018-11-12T21:12:08.205Z,20.23
2018-11-12T21:14:36.623Z,21.63
2018-11-12T21:17:05.221Z,21.23
2018-11-12T21:19:33.761Z,21.03
2018-11-12T21:22:02.185Z,22.53
2018-11-12T21:24:30.653Z,20.60
2018-11-12T21:26:59.051Z,20.47
2018-11-12T21:29:27.508Z,20.50
2018-11-12T21:31:55.888Z,21.43
2018-11-12T21:34:24.301Z,21.20
2018-11-12T21:36:52.733Z,20.77
2018-11-12T21:39:21.158Z,22.07
2018-11-12T21:41:49.585Z,21.90
2018-11-12T21:44:18.021Z,22.20
2018-11-12T21:46:46.434Z,22.67
2018-11-12T21:49:14.857Z,23.43
2018-11-12T21:51:43.237Z,23.60
2018-11-12T21:54:11.653Z,22.33
2018-11-12T21:56:40.057Z,23.07
2018-11-12T21:59:08.505Z,22.40
2018-11-12T22:01:36.914Z,22.00
2018-11-12T22:04:05.799Z,20.93
2018-11-12T22:06:34.258Z,21.53
2018-11-12T22:09:02.681Z,21.47
2018-11-12T22:11:31.043Z,21.50
2018-11-12T22:13:59.466Z,22.87
2018-11-12T22:16:27.863Z,23.00
2018-11-12T22:18:56.242Z,22.53
2018-11-12T22:21:24.622Z,22.57
2018-11-12T22:23:53.066Z,23.90
2018-11-12T22:26:21.458Z,22.80
2018-11-12T22:28:49.884Z,22.47
2018-11-12T22:31:18.300Z,22.57
2018-11-12T22:33:46.717Z,21.83
2018-11-12T22:36:15.137Z,22.63
2018-11-12T22:38:43.509Z,23.33
2018-11-12T22:41:11.912Z,22.07
2018-11-12T22:43:40.350Z,21.47
2018-11-12T22:46:08.757Z,22.47
2018-11-12T22:48:37.268Z,21.27
2018-11-12T22:51:05.769Z,21.53
2018-11-12T22:53:34.154Z,22.40
2018-11-12T22:56:02.585Z,22.13
2018-11-12T22:58:30.966Z,23.73
2018-11-12T23:01:03.550Z,22.73
2018-11-12T23:03:32.002Z,22.00
2018-11-12T23:06:05.765Z,22.97
2018-11-12T23:08:34.174Z,23.80
2018-11-12T23:11:02.641Z,23.63
2018-11-12T23:13:31.017Z,22.93
2018-11-12T23:15:59.425Z,23.23
2018-11-12T23:18:27.802Z,24.80
2018-11-12T23:20:56.225Z,22.47
2018-11-12T23:23:24.656Z,21.03
2018-11-12T23:25:53.054Z,22.50
2018-11-12T23:28:21.449Z,23.17
2018-11-12T23:30:49.885Z,22.20
2018-11-12T23:33:18.273Z,23.23
2018-11-12T23:35:46.755Z,21.23
2018-11-12T23:38:15.170Z,23.10
2018-11-12T23:40:43.573Z,22.20
2018-11-12T23:43:12.113Z,21.33
2018-11-12T23:45:40.512Z,20.27
2018-11-12T23:48:08.994Z,20.43
2018-11-12T23:50:37.428Z,19.37
2018-11-12T23:53:05.853Z,20.70
2018-11-12T23:55:34.285Z,18.87
2018-11-12T23:58:02.675Z,19.10
